Time;durP1;ratioP1;P1;durP2;ratioP2;P2;SDS_P1;SDS_P2;PMS_P1;PMS_P2;Temp;Humidity;BMP_temperature;BMP_pressure;BME280_temperature;BME280_humidity;BME280_pressure;Samples;Min_cycle;Max_cycle;Signal;HPM_P1;HPM_P2
2023/04/23 00:00:29;;;;;;;0.90;0.90;;;12.60;99.90;;;;;;4992071;28;20232;-68
2023/04/23 00:02:58;;;;;;;1.63;1.40;;;12.70;99.90;;;;;;4992860;28;20649;-69
2023/04/23 00:05:28;;;;;;;0.82;0.82;;;12.70;99.90;;;;;;4992983;28;20312;-70
2023/04/23 00:08:00;;;;;;;0.82;0.80;;;12.70;99.90;;;;;;4992583;28;20725;-70
2023/04/23 00:10:28;;;;;;;0.80;0.80;;;12.90;99.90;;;;;;4992661;28;20229;-72
2023/04/23 00:12:56;;;;;;;1.10;0.70;;;12.90;99.90;;;;;;4991872;28;20202;-69
2023/04/23 00:15:27;;;;;;;0.80;0.60;;;12.90;99.90;;;;;;4991548;28;20717;-69
2023/04/23 00:17:55;;;;;;;0.63;0.63;;;12.80;99.90;;;;;;4991890;28;20288;-69
2023/04/23 00:20:22;;;;;;;0.85;0.82;;;12.90;99.90;;;;;;4992792;28;20318;-70
2023/04/23 00:22:52;;;;;;;1.48;1.38;;;12.80;99.90;;;;;;4992349;28;20637;-70
2023/04/23 00:25:20;;;;;;;1.30;1.20;;;12.80;99.90;;;;;;4992632;28;20248;-69
2023/04/23 00:27:47;;;;;;;0.70;0.70;;;12.70;99.90;;;;;;4992157;28;20214;-69
2023/04/23 00:30:17;;;;;;;0.70;0.70;;;12.70;99.90;;;;;;4990396;28;20321;-69
2023/04/23 00:32:46;;;;;;;1.00;0.80;;;12.70;99.90;;;;;;4991413;28;20218;-69
2023/04/23 00:35:14;;;;;;;0.88;0.88;;;12.60;99.90;;;;;;4992555;28;20604;-69
2023/04/23 00:37:42;;;;;;;0.70;0.60;;;12.70;99.90;;;;;;4991671;28;20292;-70
2023/04/23 00:40:12;;;;;;;1.10;0.60;;;12.70;99.90;;;;;;4992219;28;20265;-71
2023/04/23 00:42:40;;;;;;;0.95;0.95;;;12.70;99.90;;;;;;4991937;28;20206;-70
2023/04/23 00:45:09;;;;;;;1.00;0.70;;;12.70;99.90;;;;;;4992277;28;20309;-71
2023/04/23 00:47:36;;;;;;;0.73;0.70;;;12.70;99.90;;;;;;4991391;28;20242;-71
2023/04/23 00:50:07;;;;;;;0.90;0.90;;;12.70;99.90;;;;;;4991347;28;20334;-71
2023/04/23 00:52:35;;;;;;;1.17;1.08;;;12.70;99.90;;;;;;4983813;28;20306;-71
2023/04/23 00:55:03;;;;;;;0.98;0.60;;;12.70;99.90;;;;;;4992204;28;20229;-70
2023/04/23 00:57:33;;;;;;;0.80;0.80;;;12.70;99.90;;;;;;4991974;28;20293;-71
2023/04/23 01:00:01;;;;;;;0.68;0.60;;;12.70;99.90;;;;;;4991671;28;20257;-71
2023/04/23 01:02:30;;;;;;;1.13;0.70;;;12.70;99.90;;;;;;4990753;28;20291;-70
2023/04/23 01:05:01;;;;;;;1.05;0.93;;;12.70;99.90;;;;;;4990981;28;20720;-70
2023/04/23 01:07:29;;;;;;;0.60;0.57;;;12.70;99.90;;;;;;4991989;28;20679;-69
2023/04/23 01:09:57;;;;;;;1.30;1.20;;;12.70;99.90;;;;;;4990006;28;20634;-69
2023/04/23 01:12:25;;;;;;;0.80;0.80;;;12.70;99.90;;;;;;4984436;28;20202;-69
2023/04/23 01:14:55;;;;;;;1.25;1.15;;;12.70;99.90;;;;;;4991355;28;20689;-69
2023/04/23 01:17:23;;;;;;;0.70;0.70;;;12.70;99.90;;;;;;4991879;28;20568;-69
2023/04/23 01:19:51;;;;;;;0.80;0.70;;;12.70;99.90;;;;;;4991371;28;20240;-69
2023/04/23 01:22:20;;;;;;;1.50;0.95;;;12.60;99.90;;;;;;4991047;28;20241;-68
2023/04/23 01:24:49;;;;;;;0.90;0.85;;;12.50;99.90;;;;;;4992927;28;20232;-69
2023/04/23 01:27:18;;;;;;;1.35;0.85;;;12.50;99.90;;;;;;4991097;28;20209;-69
2023/04/23 01:29:47;;;;;;;0.80;0.80;;;12.40;99.90;;;;;;4988670;28;20237;-69
2023/04/23 01:32:15;;;;;;;0.90;0.80;;;12.30;99.90;;;;;;4988551;28;20240;-69
2023/04/23 01:34:53;;;;;;;0.98;0.98;;;12.40;99.90;;;;;;4990806;28;20214;-69
2023/04/23 01:37:24;;;;;;;0.75;0.65;;;12.50;99.90;;;;;;4991637;28;20241;-69
2023/04/23 01:39:52;;;;;;;1.25;0.68;;;12.40;99.90;;;;;;4990497;28;20253;-68
2023/04/23 01:42:21;;;;;;;1.88;1.77;;;12.40;99.90;;;;;;4991344;28;20305;-70
2023/04/23 01:44:49;;;;;;;0.80;0.70;;;12.50;99.90;;;;;;4990687;28;20202;-70
2023/04/23 01:47:36;;;;;;;1.25;0.73;;;12.60;99.90;;;;;;4991476;28;20202;-70
2023/04/23 01:50:05;;;;;;;1.17;1.08;;;12.60;99.90;;;;;;4990447;28;20718;-71
2023/04/23 01:52:35;;;;;;;0.70;0.70;;;12.60;99.90;;;;;;4991156;28;20288;-71
2023/04/23 01:55:03;;;;;;;3.28;1.30;;;12.60;99.90;;;;;;4991176;28;20300;-72
2023/04/23 01:57:31;;;;;;;1.45;1.15;;;12.60;99.90;;;;;;4990571;28;20206;-70
2023/04/23 02:00:06;;;;;;;1.42;0.90;;;12.40;99.90;;;;;;4990844;28;20233;-70
2023/04/23 02:02:35;;;;;;;1.77;1.67;;;12.40;99.90;;;;;;4991083;28;20228;-70
2023/04/23 02:05:04;;;;;;;0.80;0.80;;;12.30;99.90;;;;;;4990222;28;20210;-70
2023/04/23 02:07:33;;;;;;;1.25;1.15;;;12.30;99.90;;;;;;4991261;28;20197;-71
2023/04/23 02:10:03;;;;;;;0.85;0.85;;;12.40;99.90;;;;;;4990920;28;20260;-70
2023/04/23 02:12:31;;;;;;;1.67;1.58;;;12.30;99.90;;;;;;4990835;28;20202;-70
2023/04/23 02:14:59;;;;;;;0.95;0.95;;;12.30;99.90;;;;;;4990244;28;20633;-70
2023/04/23 02:17:28;;;;;;;1.10;1.02;;;12.30;99.90;;;;;;4991057;28;20198;-71
2023/04/23 02:19:56;;;;;;;0.80;0.73;;;12.40;99.90;;;;;;4990647;28;20237;-70
2023/04/23 02:22:25;;;;;;;0.93;0.70;;;12.50;99.90;;;;;;4990777;28;20284;-72
2023/04/23 02:24:54;;;;;;;0.63;0.60;;;12.60;99.90;;;;;;4990079;28;20701;-71
2023/04/23 02:27:23;;;;;;;0.75;0.75;;;12.80;99.90;;;;;;4990932;28;20230;-71
2023/04/23 02:29:51;;;;;;;0.73;0.73;;;12.90;99.90;;;;;;4989617;28;20230;-70
2023/04/23 02:32:18;;;;;;;1.23;1.00;;;13.00;99.90;;;;;;4990960;28;20292;-71
2023/04/23 02:34:46;;;;;;;1.40;1.25;;;13.00;99.90;;;;;;4990776;28;20213;-71
2023/04/23 02:37:14;;;;;;;1.02;0.93;;;13.00;99.90;;;;;;4991127;28;20293;-71
2023/04/23 02:39:42;;;;;;;1.63;1.52;;;13.00;99.90;;;;;;4990522;28;20269;-71
2023/04/23 02:42:11;;;;;;;1.38;1.27;;;13.00;99.90;;;;;;4990749;28;20637;-71
2023/04/23 02:44:40;;;;;;;1.08;0.70;;;13.00;99.90;;;;;;4987078;28;20253;-70
2023/04/23 02:47:09;;;;;;;1.50;1.40;;;12.90;99.90;;;;;;4982298;28;20269;-70
2023/04/23 02:49:36;;;;;;;0.68;0.65;;;13.00;99.90;;;;;;4989972;28;20757;-70
2023/04/23 02:52:05;;;;;;;0.82;0.82;;;12.90;99.90;;;;;;4990495;28;20285;-71
2023/04/23 02:54:32;;;;;;;3.45;1.52;;;12.80;99.90;;;;;;4990795;28;20206;-71
2023/04/23 02:57:01;;;;;;;1.52;0.65;;;12.60;99.90;;;;;;4990234;28;20634;-73
2023/04/23 02:59:29;;;;;;;0.93;0.93;;;12.50;99.90;;;;;;4989878;28;20226;-71
2023/04/23 03:01:58;;;;;;;1.27;1.17;;;12.30;99.90;;;;;;4993998;28;20735;-72
2023/04/23 03:04:26;;;;;;;2.33;1.90;;;12.30;99.90;;;;;;4993471;28;20202;-71
2023/04/23 03:06:54;;;;;;;1.50;1.40;;;12.20;99.90;;;;;;4993722;28;20233;-71
2023/04/23 03:09:22;;;;;;;2.20;1.55;;;12.20;99.90;;;;;;4993866;28;20272;-71
2023/04/23 03:11:50;;;;;;;1.38;1.27;;;12.20;99.90;;;;;;4993741;28;20261;-71
2023/04/23 03:14:18;;;;;;;1.85;1.75;;;12.30;99.90;;;;;;4994082;28;20210;-71
2023/04/23 03:16:46;;;;;;;1.90;1.10;;;12.20;99.90;;;;;;4993801;28;20220;-70
2023/04/23 03:19:15;;;;;;;2.03;1.88;;;12.20;99.90;;;;;;4992909;28;20221;-72
2023/04/23 03:21:43;;;;;;;0.80;0.77;;;12.20;99.90;;;;;;4991975;28;20694;-72
2023/04/23 03:24:13;;;;;;;1.20;1.10;;;12.20;99.90;;;;;;4986192;28;20210;-72
2023/04/23 03:26:41;;;;;;;1.10;1.00;;;12.20;99.90;;;;;;4993891;28;20349;-72
2023/04/23 03:29:09;;;;;;;1.00;1.00;;;12.20;99.90;;;;;;4993235;28;20288;-72
2023/04/23 03:31:37;;;;;;;1.70;1.60;;;12.20;99.90;;;;;;4993741;28;20257;-72
2023/04/23 03:34:05;;;;;;;1.10;1.10;;;12.20;99.90;;;;;;4993380;28;20216;-72
2023/04/23 03:36:34;;;;;;;1.67;1.58;;;12.30;99.90;;;;;;4992200;28;20232;-72
2023/04/23 03:39:02;;;;;;;1.92;1.63;;;12.40;99.90;;;;;;4991083;28;20662;-71
2023/04/23 03:41:30;;;;;;;1.58;1.48;;;12.30;99.90;;;;;;4993497;28;20225;-71
2023/04/23 03:43:58;;;;;;;0.80;0.75;;;12.30;99.90;;;;;;4993320;28;20218;-69
2023/04/23 03:46:25;;;;;;;1.25;1.15;;;12.40;99.90;;;;;;4993417;28;20305;-69
2023/04/23 03:48:53;;;;;;;0.75;0.75;;;12.50;99.90;;;;;;4992866;28;20210;-70
2023/04/23 03:51:21;;;;;;;2.10;2.00;;;12.50;99.90;;;;;;4993030;28;20240;-70
2023/04/23 03:53:50;;;;;;;0.98;0.70;;;12.50;99.90;;;;;;4993130;28;20627;-70
2023/04/23 03:56:18;;;;;;;0.80;0.80;;;12.50;99.90;;;;;;4992637;28;20288;-71
2023/04/23 03:58:46;;;;;;;1.27;1.17;;;12.50;99.90;;;;;;4992220;28;20241;-71
2023/04/23 04:01:14;;;;;;;0.70;0.70;;;12.60;99.90;;;;;;4985681;28;20312;-70
2023/04/23 04:03:42;;;;;;;1.95;1.25;;;12.60;99.90;;;;;;4993239;28;20296;-70
2023/04/23 04:06:11;;;;;;;0.85;0.85;;;12.60;99.90;;;;;;4992874;28;20286;-70
2023/04/23 04:08:38;;;;;;;1.30;1.20;;;12.60;99.90;;;;;;4993074;28;20288;-70
2023/04/23 04:11:08;;;;;;;1.15;0.90;;;12.70;99.90;;;;;;4992554;28;20238;-71
2023/04/23 04:13:35;;;;;;;1.05;0.90;;;12.60;99.90;;;;;;4992186;28;20297;-71
2023/04/23 04:16:04;;;;;;;4.43;1.65;;;12.70;99.90;;;;;;4993030;28;20268;-69
2023/04/23 04:18:32;;;;;;;2.00;0.85;;;12.60;99.90;;;;;;4991362;28;20213;-70
2023/04/23 04:20:59;;;;;;;1.70;1.30;;;12.60;99.90;;;;;;4993149;28;20268;-70
2023/04/23 04:23:27;;;;;;;1.35;0.95;;;12.70;99.90;;;;;;4992957;28;20637;-71
2023/04/23 04:25:56;;;;;;;1.75;1.65;;;12.80;99.90;;;;;;4992369;28;20292;-70
2023/04/23 04:28:26;;;;;;;1.08;1.02;;;12.70;99.90;;;;;;4992236;28;20229;-72
2023/04/23 04:30:56;;;;;;;1.67;0.95;;;12.70;99.90;;;;;;4990152;28;20301;-71
2023/04/23 04:33:24;;;;;;;0.98;0.93;;;12.70;99.90;;;;;;4992409;28;20276;-73
2023/04/23 04:35:53;;;;;;;0.90;0.77;;;12.70;99.90;;;;;;4992124;28;20237;-72
2023/04/23 04:38:21;;;;;;;1.10;1.02;;;12.70;99.90;;;;;;4991951;28;20202;-72
2023/04/23 04:40:49;;;;;;;0.60;0.60;;;12.70;99.90;;;;;;4991751;28;20240;-72
2023/04/23 04:43:17;;;;;;;0.60;0.50;;;12.70;99.90;;;;;;4984528;28;20290;-72
2023/04/23 04:45:46;;;;;;;1.67;1.58;;;12.70;99.90;;;;;;4990432;28;20244;-71
2023/04/23 04:48:14;;;;;;;0.82;0.70;;;12.70;99.90;;;;;;4991213;28;20589;-72
2023/04/23 04:50:43;;;;;;;1.13;0.95;;;12.70;99.90;;;;;;4991865;28;20257;-72
2023/04/23 04:53:11;;;;;;;0.90;0.90;;;12.70;99.90;;;;;;4991340;28;20215;-70
2023/04/23 04:55:38;;;;;;;0.88;0.63;;;12.50;99.90;;;;;;4987175;28;20305;-74
2023/04/23 04:58:06;;;;;;;0.80;0.80;;;12.30;99.90;;;;;;4991344;28;20210;-76
2023/04/23 05:00:34;;;;;;;1.77;1.25;;;12.30;99.90;;;;;;4989598;28;20256;-74
2023/04/23 05:03:04;;;;;;;0.70;0.70;;;12.30;99.90;;;;;;4990917;28;20622;-75
2023/04/23 05:05:33;;;;;;;1.15;1.05;;;12.30;99.90;;;;;;4992072;28;20210;-72
2023/04/23 05:08:01;;;;;;;0.90;0.90;;;12.40;99.90;;;;;;4990584;28;20285;-73
2023/04/23 05:10:29;;;;;;;1.77;1.05;;;12.40;99.90;;;;;;4985006;28;20225;-74
2023/04/23 05:12:57;;;;;;;0.95;0.95;;;12.50;99.90;;;;;;4991632;28;20293;-73
2023/04/23 05:15:25;;;;;;;0.80;0.80;;;12.50;99.90;;;;;;4991892;28;20297;-74
2023/04/23 05:17:53;;;;;;;0.60;0.50;;;12.60;99.90;;;;;;4991462;28;20198;-72
2023/04/23 05:20:23;;;;;;;1.40;1.30;;;12.60;99.90;;;;;;4990276;28;20218;-72
2023/04/23 05:22:51;;;;;;;1.38;1.27;;;12.40;99.90;;;;;;4991035;28;20213;-72
2023/04/23 05:25:19;;;;;;;2.00;1.50;;;12.30;99.90;;;;;;4982660;28;20209;-73
2023/04/23 05:27:46;;;;;;;1.13;1.02;;;12.20;99.90;;;;;;4991595;28;20308;-74
2023/04/23 05:30:14;;;;;;;0.85;0.85;;;12.20;99.90;;;;;;4991329;28;20248;-74
2023/04/23 05:32:42;;;;;;;0.88;0.88;;;12.20;99.90;;;;;;4991685;28;20703;-74
2023/04/23 05:35:10;;;;;;;0.73;0.73;;;12.10;99.90;;;;;;4991507;28;20300;-74
2023/04/23 05:37:39;;;;;;;2.05;1.80;;;12.20;99.90;;;;;;4988556;28;20730;-72
2023/04/23 05:40:08;;;;;;;1.55;1.45;;;12.10;99.90;;;;;;4989590;28;20229;-73
2023/04/23 05:42:37;;;;;;;1.05;1.05;;;12.20;99.90;;;;;;4991443;28;20293;-72
2023/04/23 05:45:07;;;;;;;1.20;1.10;;;12.20;99.90;;;;;;4991172;28;20221;-70
2023/04/23 05:47:36;;;;;;;0.88;0.88;;;12.30;99.90;;;;;;4991320;28;20611;-72
2023/04/23 05:50:10;;;;;;;1.10;1.00;;;12.40;99.90;;;;;;4990988;28;20620;-72
2023/04/23 05:52:39;;;;;;;0.60;0.60;;;12.30;99.90;;;;;;4989150;28;20252;-71
2023/04/23 05:55:08;;;;;;;0.90;0.88;;;12.40;99.90;;;;;;4984187;28;20323;-72
2023/04/23 05:57:36;;;;;;;0.90;0.80;;;12.50;99.90;;;;;;4991188;28;20209;-72
2023/04/23 06:00:08;;;;;;;0.90;0.90;;;12.50;99.90;;;;;;4990686;28;20271;-73
2023/04/23 06:02:36;;;;;;;0.82;0.60;;;12.40;99.90;;;;;;4985363;28;20205;-72
2023/04/23 06:05:05;;;;;;;0.80;0.80;;;12.50;99.90;;;;;;4991107;28;20213;-72
2023/04/23 06:07:34;;;;;;;0.60;0.50;;;12.60;99.90;;;;;;4984952;28;20218;-75
2023/04/23 06:10:03;;;;;;;1.45;1.35;;;12.60;99.90;;;;;;4988464;28;20233;-75
2023/04/23 06:12:31;;;;;;;0.60;0.60;;;12.70;99.90;;;;;;4990579;28;20230;-72
2023/04/23 06:14:59;;;;;;;0.75;0.73;;;12.70;99.90;;;;;;4990508;28;20216;-73
2023/04/23 06:17:27;;;;;;;0.73;0.68;;;12.80;99.90;;;;;;4990926;28;20248;-75
2023/04/23 06:19:55;;;;;;;1.40;1.30;;;12.70;99.90;;;;;;4990803;28;20376;-74
2023/04/23 06:22:23;;;;;;;0.70;0.65;;;12.70;99.90;;;;;;4986841;28;20236;-74
2023/04/23 06:24:51;;;;;;;1.35;1.20;;;12.70;99.90;;;;;;4987297;28;20245;-74
2023/04/23 06:27:20;;;;;;;0.60;0.60;;;12.70;99.90;;;;;;4990949;28;20297;-74
2023/04/23 06:29:48;;;;;;;1.38;1.27;;;12.80;99.90;;;;;;4990016;28;20256;-72
2023/04/23 06:32:16;;;;;;;0.95;0.95;;;12.80;99.90;;;;;;4990951;28;21080;-74
2023/04/23 06:34:47;;;;;;;1.33;1.23;;;13.00;99.90;;;;;;4992183;28;20297;-74
2023/04/23 06:37:29;;;;;;;1.00;1.00;;;13.10;99.90;;;;;;4982921;28;20224;-72
2023/04/23 06:39:58;;;;;;;0.93;0.88;;;13.20;99.90;;;;;;4994089;28;20744;-71
2023/04/23 06:42:27;;;;;;;0.60;0.50;;;13.30;99.90;;;;;;4992640;28;20239;-70
2023/04/23 06:44:55;;;;;;;0.60;0.60;;;13.30;99.90;;;;;;4993721;28;20663;-70
2023/04/23 06:47:23;;;;;;;1.33;0.95;;;13.40;99.90;;;;;;4986995;28;20202;-71
2023/04/23 06:49:51;;;;;;;0.70;0.70;;;13.60;99.90;;;;;;4993596;28;20652;-71
2023/04/23 06:52:19;;;;;;;1.73;1.50;;;13.70;99.90;;;;;;4986820;28;20210;-72
2023/04/23 06:54:47;;;;;;;0.70;0.60;;;13.80;99.90;;;;;;4993536;28;20210;-70
2023/04/23 06:57:15;;;;;;;1.20;1.10;;;14.00;99.90;;;;;;4993394;28;20284;-70
2023/04/23 06:59:44;;;;;;;0.60;0.60;;;14.00;99.90;;;;;;4994188;28;20313;-71
2023/04/23 07:02:12;;;;;;;1.15;1.05;;;14.10;99.90;;;;;;4986176;28;20233;-72
2023/04/23 07:04:40;;;;;;;0.63;0.63;;;14.10;99.90;;;;;;4993505;28;20206;-73
2023/04/23 07:07:09;;;;;;;0.80;0.80;;;14.10;99.90;;;;;;4993555;28;20233;-72
2023/04/23 07:09:36;;;;;;;1.23;1.08;;;14.10;99.90;;;;;;4988911;28;20253;-72
2023/04/23 07:12:05;;;;;;;0.60;0.60;;;14.10;99.90;;;;;;4991746;28;20202;-71
2023/04/23 07:14:32;;;;;;;1.55;1.08;;;14.20;99.90;;;;;;4993323;28;20629;-73
2023/04/23 07:17:02;;;;;;;0.80;0.70;;;14.30;99.90;;;;;;4992634;28;20206;-71
2023/04/23 07:19:30;;;;;;;1.02;0.80;;;14.30;99.90;;;;;;4988339;28;20194;-70
2023/04/23 07:21:57;;;;;;;1.23;0.88;;;14.50;99.90;;;;;;4993656;28;20212;-71
2023/04/23 07:24:26;;;;;;;0.60;0.60;;;14.60;99.90;;;;;;4993408;28;20644;-70
2023/04/23 07:26:54;;;;;;;0.77;0.77;;;14.90;99.90;;;;;;4993360;28;20710;-70
2023/04/23 07:29:22;;;;;;;1.10;1.00;;;15.10;99.90;;;;;;4992666;28;20702;-70
2023/04/23 07:31:50;;;;;;;0.98;0.82;;;15.20;99.90;;;;;;4986505;28;20671;-71
2023/04/23 07:34:19;;;;;;;0.80;0.60;;;15.20;99.90;;;;;;4991296;28;20210;-72
2023/04/23 07:36:47;;;;;;;0.60;0.55;;;15.00;99.90;;;;;;4992755;28;20217;-71
2023/04/23 07:39:15;;;;;;;0.70;0.70;;;14.90;99.90;;;;;;4992797;28;20258;-72
2023/04/23 07:41:43;;;;;;;0.60;0.47;;;14.80;99.90;;;;;;4993527;28;20209;-72
2023/04/23 07:44:11;;;;;;;0.75;0.50;;;14.70;99.90;;;;;;4993224;28;20229;-73
2023/04/23 07:46:39;;;;;;;1.98;1.65;;;14.60;99.90;;;;;;4991885;28;20555;-71
2023/04/23 07:49:07;;;;;;;0.77;0.75;;;14.50;99.90;;;;;;4992410;28;20313;-73
2023/04/23 07:51:36;;;;;;;1.02;0.93;;;14.30;99.90;;;;;;4993126;28;20238;-73
2023/04/23 07:54:04;;;;;;;0.70;0.63;;;14.30;99.90;;;;;;4991822;28;20236;-73
2023/04/23 07:56:32;;;;;;;0.77;0.70;;;14.20;99.90;;;;;;4992730;28;20304;-74
2023/04/23 07:59:00;;;;;;;1.02;0.93;;;14.10;99.90;;;;;;4992658;28;20320;-72
2023/04/23 08:01:28;;;;;;;0.60;0.55;;;14.10;99.90;;;;;;4984696;28;20225;-74
2023/04/23 08:03:56;;;;;;;0.85;0.65;;;14.10;99.90;;;;;;4991829;28;20699;-72
2023/04/23 08:06:28;;;;;;;0.60;0.50;;;14.00;99.90;;;;;;4984916;28;20256;-73
2023/04/23 08:08:59;;;;;;;0.70;0.68;;;14.00;99.90;;;;;;4992515;28;20268;-73
2023/04/23 08:11:28;;;;;;;1.77;1.25;;;14.20;99.90;;;;;;4988527;28;20225;-74
2023/04/23 08:13:56;;;;;;;1.10;1.00;;;14.20;99.90;;;;;;4992320;28;20217;-71
2023/04/23 08:16:24;;;;;;;0.60;0.50;;;14.40;99.90;;;;;;4991490;28;20280;-73
2023/04/23 08:18:51;;;;;;;1.70;1.60;;;14.30;99.90;;;;;;4990982;28;20633;-73
2023/04/23 08:21:32;;;;;;;0.60;0.60;;;14.40;99.90;;;;;;4984809;28;20648;-73
2023/04/23 08:24:01;;;;;;;0.65;0.65;;;14.30;99.90;;;;;;4992239;28;20205;-71
2023/04/23 08:26:30;;;;;;;1.98;1.77;;;14.50;99.90;;;;;;4984483;28;20683;-71
2023/04/23 08:28:59;;;;;;;1.42;1.23;;;14.50;99.90;;;;;;4992352;28;20264;-71
2023/04/23 08:31:27;;;;;;;0.60;0.50;;;14.60;99.90;;;;;;4991788;28;20240;-71
2023/04/23 08:33:55;;;;;;;0.70;0.60;;;14.50;99.90;;;;;;4989960;28;20523;-71
2023/04/23 08:36:23;;;;;;;0.70;0.70;;;14.40;99.90;;;;;;4991694;28;20301;-71
2023/04/23 08:38:51;;;;;;;1.15;0.85;;;14.40;99.90;;;;;;4991664;28;20214;-71
2023/04/23 08:41:24;;;;;;;0.85;0.70;;;14.60;99.90;;;;;;4991598;28;20248;-71
2023/04/23 08:43:59;;;;;;;1.42;0.60;;;14.90;99.90;;;;;;4991496;28;20203;-73
2023/04/23 08:46:31;;;;;;;0.50;0.40;;;15.30;99.90;;;;;;4991341;28;20201;-71
2023/04/23 08:49:00;;;;;;;0.60;0.45;;;15.70;99.90;;;;;;4989288;28;20213;-72
2023/04/23 08:51:32;;;;;;;0.70;0.70;;;16.20;99.90;;;;;;4991181;28;20449;-72
2023/04/23 08:54:04;;;;;;;0.60;0.50;;;16.30;99.90;;;;;;4991630;28;20644;-72
2023/04/23 08:56:36;;;;;;;0.60;0.50;;;16.50;99.90;;;;;;4983746;28;20212;-72
2023/04/23 08:59:04;;;;;;;0.50;0.40;;;16.50;99.90;;;;;;4991219;28;20226;-71
2023/04/23 09:01:32;;;;;;;3.00;2.80;;;16.60;99.90;;;;;;4982626;28;20316;-71
2023/04/23 09:04:00;;;;;;;0.80;0.60;;;16.50;99.90;;;;;;4987849;28;20660;-71
2023/04/23 09:06:30;;;;;;;0.82;0.70;;;16.30;99.90;;;;;;4990954;28;20198;-71
2023/04/23 09:08:59;;;;;;;0.60;0.45;;;16.40;99.90;;;;;;4991329;28;20362;-71
2023/04/23 09:11:27;;;;;;;0.80;0.70;;;16.70;99.90;;;;;;4991090;28;20222;-72
2023/04/23 09:13:57;;;;;;;1.00;0.70;;;16.80;99.90;;;;;;4991495;28;20213;-71
2023/04/23 09:16:27;;;;;;;1.67;1.15;;;16.90;99.90;;;;;;4986374;28;20205;-73
2023/04/23 09:18:55;;;;;;;0.60;0.50;;;16.90;99.90;;;;;;4984733;28;20561;-71
2023/04/23 09:21:23;;;;;;;0.50;0.40;;;17.00;99.90;;;;;;4989973;28;20525;-72
2023/04/23 09:23:51;;;;;;;0.60;0.40;;;16.70;99.90;;;;;;4988148;28;20234;-72
2023/04/23 09:26:21;;;;;;;0.60;0.60;;;16.70;99.90;;;;;;4983866;28;20288;-71
2023/04/23 09:28:50;;;;;;;0.70;0.57;;;16.70;99.90;;;;;;4983965;28;20340;-72
2023/04/23 09:31:23;;;;;;;0.60;0.60;;;16.80;99.90;;;;;;4979846;28;20280;-72
2023/04/23 09:33:52;;;;;;;0.60;0.40;;;16.70;99.90;;;;;;4984652;28;20208;-73
2023/04/23 09:36:22;;;;;;;0.50;0.45;;;16.60;99.90;;;;;;4985450;28;20209;-72
2023/04/23 09:38:50;;;;;;;0.93;0.65;;;16.50;99.90;;;;;;4985856;28;20633;-72
2023/04/23 09:41:22;;;;;;;0.50;0.30;;;16.40;99.90;;;;;;4986645;28;20237;-73
2023/04/23 09:43:52;;;;;;;0.50;0.40;;;16.20;99.90;;;;;;4987644;28;20248;-72
2023/04/23 09:46:34;;;;;;;0.50;0.40;;;16.10;99.90;;;;;;4984880;28;20294;-73
2023/04/23 09:49:04;;;;;;;0.50;0.40;;;16.00;99.90;;;;;;4988554;28;20201;-72
2023/04/23 09:51:32;;;;;;;0.82;0.68;;;16.40;99.90;;;;;;4984909;28;20252;-72
2023/04/23 09:54:02;;;;;;;1.17;0.50;;;16.70;99.90;;;;;;4987290;28;20814;-73
2023/04/23 09:56:31;;;;;;;1.00;0.90;;;16.70;99.90;;;;;;4986051;28;20324;-73
2023/04/23 09:58:59;;;;;;;0.50;0.40;;;16.70;99.90;;;;;;4991072;28;20293;-73
2023/04/23 10:01:30;;;;;;;0.60;0.40;;;16.60;99.90;;;;;;4988205;28;20297;-73
2023/04/23 10:04:00;;;;;;;0.60;0.40;;;16.80;99.90;;;;;;4986672;28;20206;-73
2023/04/23 10:06:30;;;;;;;0.60;0.40;;;17.10;99.90;;;;;;4991362;28;20211;-72
2023/04/23 10:09:03;;;;;;;0.80;0.63;;;17.40;99.90;;;;;;4987884;28;20206;-73
2023/04/23 10:11:31;;;;;;;0.70;0.70;;;17.40;99.90;;;;;;5001190;28;20225;-73
2023/04/23 10:14:00;;;;;;;0.60;0.40;;;17.30;99.90;;;;;;4997549;28;20926;-73
2023/04/23 10:16:28;;;;;;;0.50;0.40;;;17.20;99.90;;;;;;5000138;28;20214;-74
2023/04/23 10:19:14;;;;;;;0.60;0.50;;;17.10;99.90;;;;;;5000622;28;20202;-73
2023/04/23 10:21:46;;;;;;;0.60;0.40;;;17.40;99.90;;;;;;5000028;28;20269;-73
2023/04/23 10:24:27;;;;;;;0.60;0.40;;;17.60;99.90;;;;;;4986056;28;20204;-73
2023/04/23 10:26:57;;;;;;;0.60;0.47;;;18.10;99.90;;;;;;4990390;28;20207;-75
2023/04/23 10:29:29;;;;;;;0.60;0.52;;;18.50;99.90;;;;;;4984478;28;20202;-73
2023/04/23 10:31:59;;;;;;;0.60;0.50;;;18.50;99.90;;;;;;4991881;28;20305;-74
2023/04/23 10:34:29;;;;;;;0.60;0.60;;;18.40;99.90;;;;;;4985505;28;20226;-74
2023/04/23 10:36:59;;;;;;;1.13;0.50;;;18.20;99.90;;;;;;4983860;28;20224;-74
2023/04/23 10:39:30;;;;;;;1.50;0.60;;;17.80;99.90;;;;;;4986178;28;20202;-74
2023/04/23 10:41:59;;;;;;;0.60;0.40;;;17.60;99.90;;;;;;4978245;28;20290;-73
2023/04/23 10:44:32;;;;;;;1.05;0.65;;;17.50;99.90;;;;;;4984391;28;20655;-73
2023/04/23 10:47:21;;;;;;;0.60;0.50;;;17.70;99.90;;;;;;4987358;28;20210;-73
2023/04/23 10:49:51;;;;;;;0.70;0.52;;;17.60;99.90;;;;;;4984784;28;20221;-73
2023/04/23 10:52:20;;;;;;;0.95;0.60;;;17.30;99.90;;;;;;4992071;28;20296;-73
2023/04/23 10:54:58;;;;;;;0.73;0.70;;;17.20;99.90;;;;;;4994351;28;20682;-73
2023/04/23 10:57:27;;;;;;;0.50;0.30;;;17.10;99.90;;;;;;4994711;28;20251;-73
2023/04/23 10:59:57;;;;;;;0.60;0.50;;;17.10;99.90;;;;;;4990891;28;20234;-74
2023/04/23 11:02:26;;;;;;;0.60;0.40;;;16.90;99.90;;;;;;4991882;28;20209;-71
2023/04/23 11:04:57;;;;;;;0.60;0.50;;;16.90;99.90;;;;;;4987573;28;20213;-73
2023/04/23 11:07:29;;;;;;;1.20;1.02;;;16.90;99.90;;;;;;4993958;28;20576;-73
2023/04/23 11:09:59;;;;;;;0.70;0.70;;;16.80;99.90;;;;;;4992487;28;20241;-70
2023/04/23 11:12:33;;;;;;;0.60;0.40;;;16.70;99.90;;;;;;4993233;28;20288;-72
2023/04/23 11:15:11;;;;;;;0.95;0.88;;;16.60;99.90;;;;;;4993351;28;20217;-72
2023/04/23 11:17:58;;;;;;;0.70;0.70;;;16.50;99.90;;;;;;4988347;28;20687;-72
2023/04/23 11:20:28;;;;;;;0.60;0.45;;;16.30;99.90;;;;;;4986730;28;20222;-72
2023/04/23 11:22:56;;;;;;;1.50;0.40;;;16.20;99.90;;;;;;4986397;28;20237;-73
2023/04/23 11:25:26;;;;;;;0.60;0.50;;;15.90;99.90;;;;;;4983403;28;20225;-72
2023/04/23 11:27:57;;;;;;;0.60;0.40;;;15.70;99.90;;;;;;4984010;28;20302;-72
2023/04/23 11:30:26;;;;;;;0.70;0.40;;;15.70;99.90;;;;;;4987409;28;20217;-72
2023/04/23 11:32:56;;;;;;;0.50;0.40;;;15.60;99.90;;;;;;4988210;28;20309;-72
2023/04/23 11:35:27;;;;;;;0.50;0.30;;;15.60;99.90;;;;;;4986200;28;20207;-73
2023/04/23 11:37:56;;;;;;;0.50;0.40;;;15.60;99.90;;;;;;4987387;28;20571;-73
2023/04/23 11:40:24;;;;;;;0.55;0.40;;;15.40;99.90;;;;;;4989328;28;20225;-71
2023/04/23 11:42:53;;;;;;;0.80;0.57;;;15.20;99.90;;;;;;4982755;28;20214;-71
2023/04/23 11:45:24;;;;;;;1.05;0.77;;;15.20;99.90;;;;;;4987808;28;20210;-73
2023/04/23 11:47:54;;;;;;;0.70;0.65;;;15.40;99.90;;;;;;4987227;28;20257;-72
2023/04/23 11:50:24;;;;;;;0.70;0.70;;;15.60;99.90;;;;;;4987960;28;20243;-73
2023/04/23 11:52:52;;;;;;;0.80;0.50;;;15.70;99.90;;;;;;4990264;28;20700;-73
2023/04/23 11:55:23;;;;;;;1.08;0.50;;;15.90;99.90;;;;;;4990593;28;20206;-74
2023/04/23 11:57:52;;;;;;;0.60;0.47;;;16.00;99.90;;;;;;4984694;28;20210;-74
2023/04/23 12:00:22;;;;;;;0.80;0.73;;;16.10;99.90;;;;;;4988938;28;20268;-74
2023/04/23 12:02:54;;;;;;;0.80;0.80;;;16.20;99.90;;;;;;4985321;28;20598;-73
2023/04/23 12:05:23;;;;;;;1.88;0.68;;;16.30;99.90;;;;;;4987494;28;20209;-74
2023/04/23 12:07:51;;;;;;;0.68;0.60;;;16.40;99.90;;;;;;4984381;28;20206;-73
2023/04/23 12:10:22;;;;;;;0.50;0.40;;;16.50;99.90;;;;;;4984578;28;20317;-71
2023/04/23 12:12:51;;;;;;;0.60;0.40;;;16.70;99.90;;;;;;4985444;28;20597;-73
2023/04/23 12:15:20;;;;;;;0.80;0.60;;;16.90;99.90;;;;;;4984398;28;20214;-73
2023/04/23 12:17:50;;;;;;;1.50;1.40;;;17.40;99.90;;;;;;4983621;28;20679;-73
2023/04/23 12:20:21;;;;;;;0.60;0.52;;;18.00;99.90;;;;;;4986208;28;20236;-73
2023/04/23 12:22:49;;;;;;;0.60;0.60;;;18.70;99.90;;;;;;4984627;28;20238;-74
2023/04/23 12:25:23;;;;;;;0.60;0.50;;;19.20;99.90;;;;;;4983318;28;20944;-74
2023/04/23 12:27:51;;;;;;;1.02;1.00;;;19.70;99.90;;;;;;4982443;28;20205;-73
2023/04/23 12:30:19;;;;;;;0.63;0.50;;;20.20;99.90;;;;;;4986797;28;20233;-72
2023/04/23 12:32:47;;;;;;;1.30;1.20;;;20.10;99.90;;;;;;4988824;28;20229;-73
2023/04/23 12:35:15;;;;;;;0.60;0.47;;;19.80;99.90;;;;;;4985690;28;20206;-71
2023/04/23 12:37:42;;;;;;;0.60;0.50;;;19.70;99.90;;;;;;4981803;28;20212;-72
2023/04/23 12:40:11;;;;;;;0.60;0.50;;;19.80;99.90;;;;;;4985748;28;20316;-72
2023/04/23 12:42:40;;;;;;;0.55;0.43;;;19.50;99.90;;;;;;4965408;28;20285;-71
2023/04/23 12:45:09;;;;;;;0.73;0.73;;;19.00;99.90;;;;;;4992313;28;20209;-73
2023/04/23 12:47:37;;;;;;;0.60;0.57;;;18.70;99.90;;;;;;4991478;28;20239;-71
2023/04/23 12:50:06;;;;;;;0.70;0.60;;;18.50;99.90;;;;;;4991194;28;20793;-72
2023/04/23 12:52:37;;;;;;;0.93;0.63;;;18.30;99.90;;;;;;4992159;28;20386;-74
2023/04/23 12:55:05;;;;;;;0.70;0.50;;;18.10;99.90;;;;;;4996598;28;20702;-70
2023/04/23 12:57:33;;;;;;;1.30;0.68;;;18.00;99.90;;;;;;4991258;28;20742;-70